St. Maarten, Netherlands Antilles
Current Conditions -  °F | °C
As of 5:00 AM on Sunday 23 Nov 2014 (Local Time) from TNCM Reporting Station
Scattered Clouds Scattered Clouds  
Wind Chill: 81°   Ceiling: Unl
Heat Index: 85°   Visibility: 6mi
Dew Point: 73°   Wind: 16mph
Humidity: 79%   Direction: 80°E
Pressure: 29.97"   Gusts: NA
Location:  18.05°N, 63.12°W
Report Text: TNCM 230900Z 08014KT 060V130 9999 SCT023 27/23 Q1015 A2998
Loading
Personal Weather Stations






























Interactive Weather Map New forecast layout! Learn more

10-Day Weather Forecast

Advertisements
Track Severe Weather on mobile